sensor_id;sensor_type;location;lat;lon;timestamp;P1;durP1;ratioP1;P2;durP2;ratioP2
71042;SDS011;58696;52.134;5.500;2024-01-27T00:00:13;8.32;;;2.40;;
71042;SDS011;58696;52.134;5.500;2024-01-27T00:02:40;11.43;;;2.35;;
71042;SDS011;58696;52.134;5.500;2024-01-27T00:05:08;8.30;;;2.42;;
71042;SDS011;58696;52.134;5.500;2024-01-27T00:07:34;12.88;;;3.00;;
71042;SDS011;58696;52.134;5.500;2024-01-27T00:10:01;9.18;;;2.50;;
71042;SDS011;58696;52.134;5.500;2024-01-27T00:12:30;13.35;;;3.20;;
71042;SDS011;58696;52.134;5.500;2024-01-27T00:14:57;7.85;;;2.78;;
71042;SDS011;58696;52.134;5.500;2024-01-27T00:17:26;9.38;;;2.80;;
71042;SDS011;58696;52.134;5.500;2024-01-27T00:19:55;14.98;;;3.00;;
71042;SDS011;58696;52.134;5.500;2024-01-27T00:22:21;13.13;;;2.58;;
71042;SDS011;58696;52.134;5.500;2024-01-27T00:24:48;7.40;;;3.00;;
71042;SDS011;58696;52.134;5.500;2024-01-27T00:27:17;6.82;;;2.03;;
71042;SDS011;58696;52.134;5.500;2024-01-27T00:29:46;9.50;;;2.85;;
71042;SDS011;58696;52.134;5.500;2024-01-27T00:32:14;7.07;;;2.78;;
71042;SDS011;58696;52.134;5.500;2024-01-27T00:34:41;18.63;;;2.63;;
71042;SDS011;58696;52.134;5.500;2024-01-27T00:37:10;15.20;;;2.78;;
71042;SDS011;58696;52.134;5.500;2024-01-27T00:39:39;7.82;;;2.97;;
71042;SDS011;58696;52.134;5.500;2024-01-27T00:42:06;10.48;;;2.38;;
71042;SDS011;58696;52.134;5.500;2024-01-27T00:44:33;11.75;;;2.78;;
71042;SDS011;58696;52.134;5.500;2024-01-27T00:46:59;13.77;;;2.38;;
71042;SDS011;58696;52.134;5.500;2024-01-27T00:49:26;11.60;;;2.60;;
71042;SDS011;58696;52.134;5.500;2024-01-27T00:51:53;12.73;;;2.78;;
71042;SDS011;58696;52.134;5.500;2024-01-27T00:54:19;9.30;;;2.42;;
71042;SDS011;58696;52.134;5.500;2024-01-27T00:56:54;9.27;;;3.25;;
71042;SDS011;58696;52.134;5.500;2024-01-27T00:59:21;8.38;;;2.58;;
71042;SDS011;58696;52.134;5.500;2024-01-27T01:01:48;18.33;;;3.22;;
71042;SDS011;58696;52.134;5.500;2024-01-27T01:04:17;17.48;;;2.95;;
71042;SDS011;58696;52.134;5.500;2024-01-27T01:06:44;14.65;;;2.75;;
71042;SDS011;58696;52.134;5.500;2024-01-27T01:09:10;11.93;;;2.65;;
71042;SDS011;58696;52.134;5.500;2024-01-27T01:11:37;10.88;;;2.30;;
71042;SDS011;58696;52.134;5.500;2024-01-27T01:14:08;12.38;;;2.78;;
71042;SDS011;58696;52.134;5.500;2024-01-27T01:16:37;10.48;;;2.88;;
71042;SDS011;58696;52.134;5.500;2024-01-27T01:19:04;18.95;;;3.45;;
71042;SDS011;58696;52.134;5.500;2024-01-27T01:21:33;9.60;;;2.40;;
71042;SDS011;58696;52.134;5.500;2024-01-27T01:24:02;13.95;;;2.50;;
71042;SDS011;58696;52.134;5.500;2024-01-27T01:26:31;7.18;;;2.35;;
71042;SDS011;58696;52.134;5.500;2024-01-27T01:28:58;9.50;;;2.15;;
71042;SDS011;58696;52.134;5.500;2024-01-27T01:31:27;11.88;;;1.80;;
71042;SDS011;58696;52.134;5.500;2024-01-27T01:33:56;8.20;;;2.17;;
71042;SDS011;58696;52.134;5.500;2024-01-27T01:36:23;11.57;;;2.15;;
71042;SDS011;58696;52.134;5.500;2024-01-27T01:38:54;12.70;;;2.35;;
71042;SDS011;58696;52.134;5.500;2024-01-27T01:41:23;9.75;;;2.42;;
71042;SDS011;58696;52.134;5.500;2024-01-27T01:43:50;9.63;;;2.10;;
71042;SDS011;58696;52.134;5.500;2024-01-27T01:46:16;8.93;;;2.38;;
71042;SDS011;58696;52.134;5.500;2024-01-27T01:48:44;5.30;;;1.60;;
71042;SDS011;58696;52.134;5.500;2024-01-27T01:51:15;7.40;;;2.05;;
71042;SDS011;58696;52.134;5.500;2024-01-27T01:53:42;14.48;;;2.47;;
71042;SDS011;58696;52.134;5.500;2024-01-27T01:56:16;17.17;;;2.60;;
71042;SDS011;58696;52.134;5.500;2024-01-27T01:58:44;9.95;;;2.58;;
71042;SDS011;58696;52.134;5.500;2024-01-27T02:01:11;13.25;;;2.20;;
71042;SDS011;58696;52.134;5.500;2024-01-27T02:03:38;9.10;;;2.33;;
71042;SDS011;58696;52.134;5.500;2024-01-27T02:06:05;6.40;;;1.80;;
71042;SDS011;58696;52.134;5.500;2024-01-27T02:08:35;9.55;;;2.25;;
71042;SDS011;58696;52.134;5.500;2024-01-27T02:11:01;4.88;;;2.05;;
71042;SDS011;58696;52.134;5.500;2024-01-27T02:13:29;9.63;;;2.30;;
71042;SDS011;58696;52.134;5.500;2024-01-27T02:16:00;6.72;;;1.70;;
71042;SDS011;58696;52.134;5.500;2024-01-27T02:18:27;10.77;;;1.92;;
71042;SDS011;58696;52.134;5.500;2024-01-27T02:20:56;10.30;;;1.70;;
71042;SDS011;58696;52.134;5.500;2024-01-27T02:23:23;9.57;;;2.08;;
71042;SDS011;58696;52.134;5.500;2024-01-27T02:25:52;10.48;;;2.10;;
71042;SDS011;58696;52.134;5.500;2024-01-27T02:28:18;9.50;;;1.95;;
71042;SDS011;58696;52.134;5.500;2024-01-27T02:30:45;12.90;;;2.63;;
71042;SDS011;58696;52.134;5.500;2024-01-27T02:33:14;10.55;;;2.30;;
71042;SDS011;58696;52.134;5.500;2024-01-27T02:35:45;6.60;;;1.70;;
71042;SDS011;58696;52.134;5.500;2024-01-27T02:38:14;11.00;;;2.13;;
71042;SDS011;58696;52.134;5.500;2024-01-27T02:40:41;10.98;;;2.10;;
71042;SDS011;58696;52.134;5.500;2024-01-27T02:43:08;13.50;;;2.20;;
71042;SDS011;58696;52.134;5.500;2024-01-27T02:45:36;10.10;;;2.75;;
71042;SDS011;58696;52.134;5.500;2024-01-27T02:48:05;9.88;;;1.98;;
71042;SDS011;58696;52.134;5.500;2024-01-27T02:50:32;4.53;;;1.70;;
71042;SDS011;58696;52.134;5.500;2024-01-27T02:53:03;6.97;;;1.63;;
71042;SDS011;58696;52.134;5.500;2024-01-27T02:55:32;13.85;;;2.63;;
71042;SDS011;58696;52.134;5.500;2024-01-27T02:58:01;15.23;;;2.35;;
71042;SDS011;58696;52.134;5.500;2024-01-27T03:00:28;11.38;;;2.75;;
71042;SDS011;58696;52.134;5.500;2024-01-27T03:02:54;6.10;;;1.98;;
71042;SDS011;58696;52.134;5.500;2024-01-27T03:05:24;10.13;;;2.00;;
71042;SDS011;58696;52.134;5.500;2024-01-27T03:07:53;9.38;;;2.40;;
71042;SDS011;58696;52.134;5.500;2024-01-27T03:10:22;11.05;;;1.98;;
71042;SDS011;58696;52.134;5.500;2024-01-27T03:12:52;6.95;;;2.10;;
71042;SDS011;58696;52.134;5.500;2024-01-27T03:15:19;16.17;;;2.10;;
71042;SDS011;58696;52.134;5.500;2024-01-27T03:17:45;3.70;;;1.73;;
71042;SDS011;58696;52.134;5.500;2024-01-27T03:20:14;13.25;;;2.30;;
71042;SDS011;58696;52.134;5.500;2024-01-27T03:22:41;11.77;;;1.95;;
71042;SDS011;58696;52.134;5.500;2024-01-27T03:25:10;13.00;;;2.50;;
71042;SDS011;58696;52.134;5.500;2024-01-27T03:27:42;7.53;;;1.73;;
71042;SDS011;58696;52.134;5.500;2024-01-27T03:30:09;11.10;;;2.63;;
71042;SDS011;58696;52.134;5.500;2024-01-27T03:32:40;12.07;;;3.13;;
71042;SDS011;58696;52.134;5.500;2024-01-27T03:35:07;10.07;;;2.92;;
71042;SDS011;58696;52.134;5.500;2024-01-27T03:37:38;10.85;;;2.60;;
71042;SDS011;58696;52.134;5.500;2024-01-27T03:40:11;10.13;;;1.75;;
71042;SDS011;58696;52.134;5.500;2024-01-27T03:42:38;8.02;;;2.63;;
71042;SDS011;58696;52.134;5.500;2024-01-27T03:45:04;9.20;;;2.03;;
71042;SDS011;58696;52.134;5.500;2024-01-27T03:47:31;14.43;;;3.08;;
71042;SDS011;58696;52.134;5.500;2024-01-27T03:49:58;11.65;;;2.17;;
71042;SDS011;58696;52.134;5.500;2024-01-27T03:52:29;8.98;;;2.17;;
71042;SDS011;58696;52.134;5.500;2024-01-27T03:54:56;10.50;;;2.28;;
71042;SDS011;58696;52.134;5.500;2024-01-27T03:57:22;12.60;;;2.80;;
71042;SDS011;58696;52.134;5.500;2024-01-27T03:59:49;7.78;;;1.85;;
71042;SDS011;58696;52.134;5.500;2024-01-27T04:02:15;6.78;;;1.95;;
71042;SDS011;58696;52.134;5.500;2024-01-27T04:04:44;8.00;;;1.95;;
71042;SDS011;58696;52.134;5.500;2024-01-27T04:07:14;10.98;;;2.70;;
71042;SDS011;58696;52.134;5.500;2024-01-27T04:09:46;8.10;;;2.70;;
71042;SDS011;58696;52.134;5.500;2024-01-27T04:12:14;6.57;;;2.42;;
71042;SDS011;58696;52.134;5.500;2024-01-27T04:14:48;7.47;;;2.70;;
71042;SDS011;58696;52.134;5.500;2024-01-27T04:17:15;6.68;;;2.67;;
71042;SDS011;58696;52.134;5.500;2024-01-27T04:19:44;8.98;;;3.33;;
71042;SDS011;58696;52.134;5.500;2024-01-27T04:22:10;9.27;;;3.10;;
71042;SDS011;58696;52.134;5.500;2024-01-27T04:24:39;9.23;;;2.70;;
71042;SDS011;58696;52.134;5.500;2024-01-27T04:27:06;7.72;;;3.17;;
71042;SDS011;58696;52.134;5.500;2024-01-27T04:29:32;9.30;;;2.78;;
71042;SDS011;58696;52.134;5.500;2024-01-27T04:32:01;8.75;;;2.78;;
71042;SDS011;58696;52.134;5.500;2024-01-27T04:34:28;10.35;;;2.97;;
71042;SDS011;58696;52.134;5.500;2024-01-27T04:36:54;10.07;;;2.90;;
71042;SDS011;58696;52.134;5.500;2024-01-27T04:39:23;9.70;;;3.25;;
71042;SDS011;58696;52.134;5.500;2024-01-27T04:41:50;10.27;;;3.47;;
71042;SDS011;58696;52.134;5.500;2024-01-27T04:44:19;24.08;;;3.55;;
71042;SDS011;58696;52.134;5.500;2024-01-27T04:46:48;15.23;;;3.95;;
71042;SDS011;58696;52.134;5.500;2024-01-27T04:49:15;7.22;;;3.22;;
71042;SDS011;58696;52.134;5.500;2024-01-27T04:51:44;6.50;;;2.97;;
71042;SDS011;58696;52.134;5.500;2024-01-27T04:54:13;9.82;;;3.13;;
71042;SDS011;58696;52.134;5.500;2024-01-27T04:56:42;8.50;;;3.08;;
71042;SDS011;58696;52.134;5.500;2024-01-27T04:59:09;9.38;;;3.65;;
71042;SDS011;58696;52.134;5.500;2024-01-27T05:01:36;9.00;;;2.88;;
71042;SDS011;58696;52.134;5.500;2024-01-27T05:04:02;14.20;;;3.78;;
71042;SDS011;58696;52.134;5.500;2024-01-27T05:06:32;14.95;;;4.45;;
71042;SDS011;58696;52.134;5.500;2024-01-27T05:09:03;11.73;;;3.28;;
71042;SDS011;58696;52.134;5.500;2024-01-27T05:11:33;11.60;;;3.70;;
71042;SDS011;58696;52.134;5.500;2024-01-27T05:13:59;9.65;;;3.40;;
71042;SDS011;58696;52.134;5.500;2024-01-27T05:16:27;9.23;;;3.47;;
71042;SDS011;58696;52.134;5.500;2024-01-27T05:18:56;8.93;;;3.55;;
71042;SDS011;58696;52.134;5.500;2024-01-27T05:21:25;10.90;;;3.42;;
71042;SDS011;58696;52.134;5.500;2024-01-27T05:23:54;17.05;;;3.90;;
71042;SDS011;58696;52.134;5.500;2024-01-27T05:26:21;8.35;;;3.58;;
71042;SDS011;58696;52.134;5.500;2024-01-27T05:28:47;11.82;;;4.40;;
71042;SDS011;58696;52.134;5.500;2024-01-27T05:31:17;10.52;;;3.60;;
71042;SDS011;58696;52.134;5.500;2024-01-27T05:33:44;10.88;;;3.75;;
71042;SDS011;58696;52.134;5.500;2024-01-27T05:36:16;10.10;;;3.58;;
71042;SDS011;58696;52.134;5.500;2024-01-27T05:38:42;13.13;;;3.95;;
71042;SDS011;58696;52.134;5.500;2024-01-27T05:41:09;10.48;;;3.97;;
71042;SDS011;58696;52.134;5.500;2024-01-27T05:43:35;16.38;;;4.28;;
71042;SDS011;58696;52.134;5.500;2024-01-27T05:46:02;15.63;;;4.65;;
71042;SDS011;58696;52.134;5.500;2024-01-27T05:48:29;9.38;;;3.67;;
71042;SDS011;58696;52.134;5.500;2024-01-27T05:50:57;10.18;;;4.20;;
71042;SDS011;58696;52.134;5.500;2024-01-27T05:53:25;9.13;;;3.95;;
71042;SDS011;58696;52.134;5.500;2024-01-27T05:55:52;16.00;;;4.47;;
71042;SDS011;58696;52.134;5.500;2024-01-27T05:58:23;9.63;;;3.90;;
71042;SDS011;58696;52.134;5.500;2024-01-27T06:00:52;11.55;;;4.15;;
71042;SDS011;58696;52.134;5.500;2024-01-27T06:03:21;13.90;;;4.13;;
71042;SDS011;58696;52.134;5.500;2024-01-27T06:05:50;7.25;;;3.70;;
71042;SDS011;58696;52.134;5.500;2024-01-27T06:08:17;6.45;;;3.78;;
71042;SDS011;58696;52.134;5.500;2024-01-27T06:10:44;16.10;;;4.50;;
71042;SDS011;58696;52.134;5.500;2024-01-27T06:13:11;12.90;;;4.47;;
71042;SDS011;58696;52.134;5.500;2024-01-27T06:15:37;10.45;;;4.18;;
71042;SDS011;58696;52.134;5.500;2024-01-27T06:18:05;12.07;;;4.93;;
71042;SDS011;58696;52.134;5.500;2024-01-27T06:20:37;15.20;;;4.50;;
71042;SDS011;58696;52.134;5.500;2024-01-27T06:23:03;12.82;;;4.20;;
71042;SDS011;58696;52.134;5.500;2024-01-27T06:25:30;17.67;;;4.88;;
71042;SDS011;58696;52.134;5.500;2024-01-27T06:27:59;6.88;;;3.78;;
71042;SDS011;58696;52.134;5.500;2024-01-27T06:30:28;11.55;;;4.38;;
71042;SDS011;58696;52.134;5.500;2024-01-27T06:32:57;19.23;;;5.68;;
71042;SDS011;58696;52.134;5.500;2024-01-27T06:35:27;12.27;;;4.53;;
71042;SDS011;58696;52.134;5.500;2024-01-27T06:37:58;9.10;;;4.03;;
71042;SDS011;58696;52.134;5.500;2024-01-27T06:40:27;7.03;;;3.95;;
71042;SDS011;58696;52.134;5.500;2024-01-27T06:42:56;11.75;;;4.40;;
71042;SDS011;58696;52.134;5.500;2024-01-27T06:45:30;11.80;;;4.20;;
71042;SDS011;58696;52.134;5.500;2024-01-27T06:47:59;13.88;;;4.40;;
71042;SDS011;58696;52.134;5.500;2024-01-27T06:50:26;17.33;;;5.30;;
71042;SDS011;58696;52.134;5.500;2024-01-27T06:52:53;9.90;;;4.63;;
71042;SDS011;58696;52.134;5.500;2024-01-27T06:55:19;13.10;;;5.45;;
71042;SDS011;58696;52.134;5.500;2024-01-27T06:57:46;10.63;;;4.43;;
71042;SDS011;58696;52.134;5.500;2024-01-27T07:00:17;11.70;;;4.88;;
71042;SDS011;58696;52.134;5.500;2024-01-27T07:02:49;12.25;;;5.57;;
71042;SDS011;58696;52.134;5.500;2024-01-27T07:05:16;14.02;;;5.25;;
71042;SDS011;58696;52.134;5.500;2024-01-27T07:07:45;9.48;;;4.57;;
71042;SDS011;58696;52.134;5.500;2024-01-27T07:10:14;10.88;;;5.55;;
71042;SDS011;58696;52.134;5.500;2024-01-27T07:12:41;13.23;;;5.75;;
71042;SDS011;58696;52.134;5.500;2024-01-27T07:15:13;9.63;;;4.55;;
71042;SDS011;58696;52.134;5.500;2024-01-27T07:17:43;12.60;;;5.30;;
71042;SDS011;58696;52.134;5.500;2024-01-27T07:20:14;10.38;;;5.25;;
71042;SDS011;58696;52.134;5.500;2024-01-27T07:22:43;16.75;;;5.43;;
71042;SDS011;58696;52.134;5.500;2024-01-27T07:25:10;20.77;;;5.65;;
71042;SDS011;58696;52.134;5.500;2024-01-27T07:27:37;15.88;;;5.28;;
71042;SDS011;58696;52.134;5.500;2024-01-27T07:30:06;16.95;;;4.80;;
71042;SDS011;58696;52.134;5.500;2024-01-27T07:32:35;12.00;;;4.93;;
71042;SDS011;58696;52.134;5.500;2024-01-27T07:35:02;19.77;;;5.88;;
71042;SDS011;58696;52.134;5.500;2024-01-27T07:37:32;17.08;;;4.97;;
71042;SDS011;58696;52.134;5.500;2024-01-27T07:40:01;10.05;;;5.25;;
71042;SDS011;58696;52.134;5.500;2024-01-27T07:42:28;9.55;;;5.13;;
71042;SDS011;58696;52.134;5.500;2024-01-27T07:44:54;10.02;;;4.50;;
71042;SDS011;58696;52.134;5.500;2024-01-27T07:47:21;17.67;;;5.53;;
71042;SDS011;58696;52.134;5.500;2024-01-27T07:49:48;13.07;;;5.13;;
71042;SDS011;58696;52.134;5.500;2024-01-27T07:52:17;18.15;;;5.68;;
71042;SDS011;58696;52.134;5.500;2024-01-27T07:54:46;8.32;;;4.78;;
71042;SDS011;58696;52.134;5.500;2024-01-27T07:57:17;7.05;;;5.20;;
71042;SDS011;58696;52.134;5.500;2024-01-27T07:59:47;12.68;;;5.05;;
71042;SDS011;58696;52.134;5.500;2024-01-27T08:02:16;14.30;;;4.80;;
71042;SDS011;58696;52.134;5.500;2024-01-27T08:04:42;11.73;;;5.28;;
71042;SDS011;58696;52.134;5.500;2024-01-27T08:07:11;11.38;;;5.05;;
71042;SDS011;58696;52.134;5.500;2024-01-27T08:09:45;13.32;;;4.80;;
71042;SDS011;58696;52.134;5.500;2024-01-27T08:12:11;10.98;;;5.03;;
71042;SDS011;58696;52.134;5.500;2024-01-27T08:14:40;8.68;;;4.38;;
71042;SDS011;58696;52.134;5.500;2024-01-27T08:17:07;9.52;;;4.25;;
71042;SDS011;58696;52.134;5.500;2024-01-27T08:19:33;19.00;;;4.80;;
71042;SDS011;58696;52.134;5.500;2024-01-27T08:22:00;9.07;;;4.22;;
71042;SDS011;58696;52.134;5.500;2024-01-27T08:24:29;9.07;;;4.20;;
71042;SDS011;58696;52.134;5.500;2024-01-27T08:26:56;10.20;;;4.10;;
71042;SDS011;58696;52.134;5.500;2024-01-27T08:29:24;13.10;;;4.88;;
71042;SDS011;58696;52.134;5.500;2024-01-27T08:31:53;21.40;;;4.22;;
71042;SDS011;58696;52.134;5.500;2024-01-27T08:34:19;17.60;;;5.20;;
71042;SDS011;58696;52.134;5.500;2024-01-27T08:36:46;8.95;;;4.60;;
71042;SDS011;58696;52.134;5.500;2024-01-27T08:39:13;11.93;;;5.05;;
71042;SDS011;58696;52.134;5.500;2024-01-27T08:41:42;9.93;;;4.68;;
71042;SDS011;58696;52.134;5.500;2024-01-27T08:44:11;13.40;;;4.82;;
71042;SDS011;58696;52.134;5.500;2024-01-27T08:46:39;12.68;;;4.75;;
71042;SDS011;58696;52.134;5.500;2024-01-27T08:49:06;14.10;;;5.45;;
71042;SDS011;58696;52.134;5.500;2024-01-27T08:51:35;14.60;;;5.30;;
71042;SDS011;58696;52.134;5.500;2024-01-27T08:54:04;12.55;;;4.30;;
71042;SDS011;58696;52.134;5.500;2024-01-27T08:56:33;14.32;;;4.95;;
71042;SDS011;58696;52.134;5.500;2024-01-27T08:59:05;13.15;;;4.85;;
71042;SDS011;58696;52.134;5.500;2024-01-27T09:01:31;15.48;;;5.40;;
71042;SDS011;58696;52.134;5.500;2024-01-27T09:04:00;10.30;;;4.55;;
71042;SDS011;58696;52.134;5.500;2024-01-27T09:06:27;12.43;;;4.93;;
71042;SDS011;58696;52.134;5.500;2024-01-27T09:08:57;10.23;;;4.43;;
71042;SDS011;58696;52.134;5.500;2024-01-27T09:11:27;11.52;;;4.65;;
71042;SDS011;58696;52.134;5.500;2024-01-27T09:13:56;12.38;;;4.45;;
71042;SDS011;58696;52.134;5.500;2024-01-27T09:16:23;13.65;;;4.72;;
71042;SDS011;58696;52.134;5.500;2024-01-27T09:18:50;10.05;;;4.80;;
71042;SDS011;58696;52.134;5.500;2024-01-27T09:21:19;12.45;;;4.47;;
71042;SDS011;58696;52.134;5.500;2024-01-27T09:23:48;14.60;;;4.88;;
71042;SDS011;58696;52.134;5.500;2024-01-27T09:26:15;11.77;;;4.82;;
71042;SDS011;58696;52.134;5.500;2024-01-27T09:28:44;17.48;;;4.45;;
71042;SDS011;58696;52.134;5.500;2024-01-27T09:31:21;11.40;;;5.25;;
71042;SDS011;58696;52.134;5.500;2024-01-27T09:33:51;10.98;;;4.90;;
71042;SDS011;58696;52.134;5.500;2024-01-27T09:36:22;10.23;;;5.00;;
71042;SDS011;58696;52.134;5.500;2024-01-27T09:38:53;14.13;;;4.93;;
71042;SDS011;58696;52.134;5.500;2024-01-27T09:41:24;9.95;;;5.20;;
71042;SDS011;58696;52.134;5.500;2024-01-27T09:43:57;15.77;;;5.25;;
71042;SDS011;58696;52.134;5.500;2024-01-27T09:46:27;13.07;;;5.28;;
71042;SDS011;58696;52.134;5.500;2024-01-27T09:48:54;13.45;;;4.90;;
71042;SDS011;58696;52.134;5.500;2024-01-27T09:51:22;15.98;;;5.30;;
71042;SDS011;58696;52.134;5.500;2024-01-27T09:53:49;13.68;;;5.28;;
71042;SDS011;58696;52.134;5.500;2024-01-27T09:56:17;11.98;;;4.88;;
71042;SDS011;58696;52.134;5.500;2024-01-27T09:58:49;15.45;;;5.28;;
71042;SDS011;58696;52.134;5.500;2024-01-27T10:01:16;11.73;;;4.88;;
71042;SDS011;58696;52.134;5.500;2024-01-27T10:03:46;14.23;;;5.53;;
71042;SDS011;58696;52.134;5.500;2024-01-27T10:06:13;9.80;;;4.70;;
71042;SDS011;58696;52.134;5.500;2024-01-27T10:08:41;9.32;;;4.85;;
71042;SDS011;58696;52.134;5.500;2024-01-27T10:11:20;9.68;;;4.70;;
71042;SDS011;58696;52.134;5.500;2024-01-27T10:13:54;9.25;;;4.50;;
71042;SDS011;58696;52.134;5.500;2024-01-27T10:16:25;15.27;;;5.47;;
71042;SDS011;58696;52.134;5.500;2024-01-27T10:18:59;16.38;;;5.75;;
71042;SDS011;58696;52.134;5.500;2024-01-27T10:21:29;16.70;;;5.07;;
71042;SDS011;58696;52.134;5.500;2024-01-27T10:23:59;17.48;;;6.68;;
71042;SDS011;58696;52.134;5.500;2024-01-27T10:26:32;18.58;;;6.82;;
71042;SDS011;58696;52.134;5.500;2024-01-27T10:28:59;20.10;;;6.23;;
71042;SDS011;58696;52.134;5.500;2024-01-27T10:31:26;18.25;;;7.18;;
71042;SDS011;58696;52.134;5.500;2024-01-27T10:33:54;16.35;;;5.28;;
71042;SDS011;58696;52.134;5.500;2024-01-27T10:36:24;17.40;;;5.78;;
71042;SDS011;58696;52.134;5.500;2024-01-27T10:38:54;18.88;;;5.28;;
71042;SDS011;58696;52.134;5.500;2024-01-27T10:41:23;9.52;;;4.93;;
71042;SDS011;58696;52.134;5.500;2024-01-27T10:43:51;10.90;;;4.72;;
71042;SDS011;58696;52.134;5.500;2024-01-27T10:46:23;15.48;;;5.20;;
71042;SDS011;58696;52.134;5.500;2024-01-27T10:48:52;11.07;;;4.20;;
71042;SDS011;58696;52.134;5.500;2024-01-27T10:51:28;11.18;;;5.32;;
71042;SDS011;58696;52.134;5.500;2024-01-27T10:54:02;17.65;;;5.10;;
71042;SDS011;58696;52.134;5.500;2024-01-27T10:56:34;11.38;;;5.25;;
71042;SDS011;58696;52.134;5.500;2024-01-27T10:59:06;13.55;;;4.90;;
71042;SDS011;58696;52.134;5.500;2024-01-27T11:01:36;10.80;;;5.03;;
71042;SDS011;58696;52.134;5.500;2024-01-27T11:04:04;22.25;;;5.07;;
71042;SDS011;58696;52.134;5.500;2024-01-27T11:06:38;11.82;;;4.53;;
71042;SDS011;58696;52.134;5.500;2024-01-27T11:09:09;12.05;;;4.78;;
71042;SDS011;58696;52.134;5.500;2024-01-27T11:11:38;11.68;;;4.72;;
71042;SDS011;58696;52.134;5.500;2024-01-27T11:14:08;14.30;;;4.82;;
71042;SDS011;58696;52.134;5.500;2024-01-27T11:16:36;15.98;;;4.82;;
71042;SDS011;58696;52.134;5.500;2024-01-27T11:19:10;9.40;;;4.55;;
71042;SDS011;58696;52.134;5.500;2024-01-27T11:21:39;11.15;;;4.63;;
71042;SDS011;58696;52.134;5.500;2024-01-27T11:26:41;9.52;;;4.03;;
71042;SDS011;58696;52.134;5.500;2024-01-27T11:29:08;15.93;;;4.78;;
71042;SDS011;58696;52.134;5.500;2024-01-27T11:31:40;12.27;;;4.20;;
71042;SDS011;58696;52.134;5.500;2024-01-27T11:34:11;14.95;;;4.43;;
71042;SDS011;58696;52.134;5.500;2024-01-27T11:36:44;15.55;;;4.75;;
71042;SDS011;58696;52.134;5.500;2024-01-27T11:39:24;8.60;;;4.43;;
71042;SDS011;58696;52.134;5.500;2024-01-27T11:41:52;14.55;;;4.25;;
71042;SDS011;58696;52.134;5.500;2024-01-27T11:44:30;15.18;;;4.13;;
71042;SDS011;58696;52.134;5.500;2024-01-27T11:46:56;12.23;;;4.55;;
71042;SDS011;58696;52.134;5.500;2024-01-27T11:49:23;11.85;;;4.47;;
71042;SDS011;58696;52.134;5.500;2024-01-27T11:51:50;17.00;;;4.10;;
71042;SDS011;58696;52.134;5.500;2024-01-27T11:54:19;8.43;;;3.70;;
71042;SDS011;58696;52.134;5.500;2024-01-27T11:56:45;10.98;;;3.90;;
71042;SDS011;58696;52.134;5.500;2024-01-27T11:59:15;9.80;;;3.35;;
71042;SDS011;58696;52.134;5.500;2024-01-27T12:01:43;15.10;;;4.05;;
71042;SDS011;58696;52.134;5.500;2024-01-27T12:04:13;13.88;;;3.53;;
71042;SDS011;58696;52.134;5.500;2024-01-27T12:06:41;10.02;;;3.78;;
71042;SDS011;58696;52.134;5.500;2024-01-27T12:09:10;13.30;;;3.67;;
71042;SDS011;58696;52.134;5.500;2024-01-27T12:11:38;11.07;;;3.50;;
71042;SDS011;58696;52.134;5.500;2024-01-27T12:14:07;9.20;;;4.00;;
71042;SDS011;58696;52.134;5.500;2024-01-27T12:16:37;6.10;;;2.97;;
71042;SDS011;58696;52.134;5.500;2024-01-27T12:19:10;8.98;;;3.42;;
71042;SDS011;58696;52.134;5.500;2024-01-27T12:21:46;15.50;;;4.20;;
71042;SDS011;58696;52.134;5.500;2024-01-27T12:24:16;11.13;;;3.88;;
71042;SDS011;58696;52.134;5.500;2024-01-27T12:26:47;10.82;;;3.70;;
71042;SDS011;58696;52.134;5.500;2024-01-27T12:29:22;9.13;;;3.25;;
71042;SDS011;58696;52.134;5.500;2024-01-27T12:31:49;15.38;;;4.07;;
71042;SDS011;58696;52.134;5.500;2024-01-27T12:34:18;11.05;;;3.47;;
71042;SDS011;58696;52.134;5.500;2024-01-27T12:36:47;11.45;;;3.55;;
71042;SDS011;58696;52.134;5.500;2024-01-27T12:39:14;11.80;;;3.25;;
71042;SDS011;58696;52.134;5.500;2024-01-27T12:41:40;5.78;;;2.50;;
71042;SDS011;58696;52.134;5.500;2024-01-27T12:44:09;14.13;;;3.50;;
71042;SDS011;58696;52.134;5.500;2024-01-27T12:46:38;12.70;;;4.22;;
71042;SDS011;58696;52.134;5.500;2024-01-27T12:49:05;13.73;;;3.85;;
71042;SDS011;58696;52.134;5.500;2024-01-27T12:51:34;6.32;;;3.30;;
71042;SDS011;58696;52.134;5.500;2024-01-27T12:54:01;11.68;;;3.50;;
71042;SDS011;58696;52.134;5.500;2024-01-27T12:56:27;8.82;;;3.53;;
71042;SDS011;58696;52.134;5.500;2024-01-27T12:58:56;7.22;;;3.20;;
71042;SDS011;58696;52.134;5.500;2024-01-27T13:01:25;11.73;;;3.50;;
71042;SDS011;58696;52.134;5.500;2024-01-27T13:03:52;12.95;;;3.05;;
71042;SDS011;58696;52.134;5.500;2024-01-27T13:06:21;15.63;;;3.75;;
71042;SDS011;58696;52.134;5.500;2024-01-27T13:08:49;8.15;;;2.85;;
71042;SDS011;58696;52.134;5.500;2024-01-27T13:11:17;17.42;;;4.18;;
71042;SDS011;58696;52.134;5.500;2024-01-27T13:13:44;9.82;;;3.50;;
71042;SDS011;58696;52.134;5.500;2024-01-27T13:16:15;10.50;;;3.45;;
71042;SDS011;58696;52.134;5.500;2024-01-27T13:18:45;13.65;;;3.60;;
71042;SDS011;58696;52.134;5.500;2024-01-27T13:21:12;14.85;;;3.47;;
71042;SDS011;58696;52.134;5.500;2024-01-27T13:23:40;8.00;;;3.40;;
71042;SDS011;58696;52.134;5.500;2024-01-27T13:26:09;11.23;;;3.08;;
71042;SDS011;58696;52.134;5.500;2024-01-27T13:28:45;10.00;;;3.60;;
71042;SDS011;58696;52.134;5.500;2024-01-27T13:31:15;14.93;;;3.80;;
71042;SDS011;58696;52.134;5.500;2024-01-27T13:33:42;13.93;;;3.40;;
71042;SDS011;58696;52.134;5.500;2024-01-27T13:36:09;11.50;;;4.03;;
71042;SDS011;58696;52.134;5.500;2024-01-27T13:38:36;13.60;;;3.50;;
71042;SDS011;58696;52.134;5.500;2024-01-27T13:41:06;9.38;;;3.15;;
71042;SDS011;58696;52.134;5.500;2024-01-27T13:43:35;6.68;;;3.03;;
71042;SDS011;58696;52.134;5.500;2024-01-27T13:46:04;8.60;;;3.00;;
71042;SDS011;58696;52.134;5.500;2024-01-27T13:48:33;12.90;;;3.38;;
71042;SDS011;58696;52.134;5.500;2024-01-27T13:51:00;15.97;;;3.47;;
71042;SDS011;58696;52.134;5.500;2024-01-27T13:53:27;11.73;;;3.50;;
71042;SDS011;58696;52.134;5.500;2024-01-27T13:56:11;10.40;;;3.53;;
71042;SDS011;58696;52.134;5.500;2024-01-27T13:58:38;11.25;;;4.07;;
71042;SDS011;58696;52.134;5.500;2024-01-27T14:01:05;16.65;;;3.97;;
71042;SDS011;58696;52.134;5.500;2024-01-27T14:03:35;14.57;;;3.70;;
71042;SDS011;58696;52.134;5.500;2024-01-27T14:06:03;12.70;;;3.55;;
71042;SDS011;58696;52.134;5.500;2024-01-27T14:08:30;12.02;;;3.30;;
71042;SDS011;58696;52.134;5.500;2024-01-27T14:10:57;9.98;;;3.42;;
71042;SDS011;58696;52.134;5.500;2024-01-27T14:13:26;10.50;;;3.38;;
71042;SDS011;58696;52.134;5.500;2024-01-27T14:15:54;11.02;;;3.90;;
71042;SDS011;58696;52.134;5.500;2024-01-27T14:18:21;14.25;;;4.28;;
71042;SDS011;58696;52.134;5.500;2024-01-27T14:20:48;20.87;;;4.60;;
71042;SDS011;58696;52.134;5.500;2024-01-27T14:23:16;13.93;;;3.65;;
71042;SDS011;58696;52.134;5.500;2024-01-27T14:25:46;11.60;;;4.07;;
71042;SDS011;58696;52.134;5.500;2024-01-27T14:28:13;15.02;;;3.53;;
71042;SDS011;58696;52.134;5.500;2024-01-27T14:30:43;11.77;;;3.58;;
71042;SDS011;58696;52.134;5.500;2024-01-27T14:33:12;13.60;;;4.03;;
71042;SDS011;58696;52.134;5.500;2024-01-27T14:35:39;14.77;;;3.93;;
71042;SDS011;58696;52.134;5.500;2024-01-27T14:38:08;14.07;;;3.60;;
71042;SDS011;58696;52.134;5.500;2024-01-27T14:40:37;12.60;;;3.38;;
71042;SDS011;58696;52.134;5.500;2024-01-27T14:43:06;9.18;;;3.03;;
71042;SDS011;58696;52.134;5.500;2024-01-27T14:45:39;13.98;;;3.65;;
71042;SDS011;58696;52.134;5.500;2024-01-27T14:48:06;10.07;;;3.45;;